createdAt,value
2019-04-11T00:00:48.604Z,71.86
2019-04-11T00:03:35.585Z,70.71
2019-04-11T00:06:13.343Z,70.52
2019-04-11T00:08:50.559Z,69.65
2019-04-11T00:11:28.620Z,69.78
2019-04-11T00:14:07.456Z,68.52
2019-04-11T00:16:45.631Z,69.40
2019-04-11T00:19:23.228Z,70.85
2019-04-11T00:22:01.550Z,69.38
2019-04-11T00:24:39.560Z,67.90
2019-04-11T00:27:17.605Z,69.51
2019-04-11T00:29:55.493Z,70.67
2019-04-11T00:32:33.807Z,69.87
2019-04-11T00:35:11.248Z,67.58
2019-04-11T00:37:49.528Z,67.26
2019-04-11T00:40:27.025Z,66.87
2019-04-11T00:43:05.371Z,66.00
2019-04-11T00:45:43.576Z,65.54
2019-04-11T00:48:21.777Z,64.84
2019-04-11T00:51:01.350Z,66.83
2019-04-11T00:53:40.374Z,67.65
2019-04-11T00:56:19.935Z,68.12
2019-04-11T00:58:58.695Z,66.38
2019-04-11T01:01:36.751Z,65.01
2019-04-11T01:04:14.179Z,65.76
2019-04-11T01:06:52.229Z,64.60
2019-04-11T01:09:30.579Z,64.59
2019-04-11T01:12:08.437Z,64.80
2019-04-11T01:14:46.906Z,65.83
2019-04-11T01:17:25.299Z,66.16
2019-04-11T01:20:03.007Z,66.29
2019-04-11T01:22:41.010Z,66.81
2019-04-11T01:25:20.107Z,68.32
2019-04-11T01:27:58.461Z,68.87
2019-04-11T01:30:43.129Z,68.72
2019-04-11T01:33:20.746Z,68.85
2019-04-11T01:35:59.570Z,68.35
2019-04-11T01:38:42.019Z,68.51
2019-04-11T01:41:20.520Z,68.81
2019-04-11T01:44:02.190Z,67.69
2019-04-11T01:46:38.831Z,67.89
2019-04-11T01:49:22.592Z,68.48
2019-04-11T01:52:00.174Z,66.89
2019-04-11T01:54:39.756Z,67.20
2019-04-11T01:57:18.058Z,68.20
2019-04-11T01:59:55.659Z,68.49
2019-04-11T02:02:56.997Z,65.72
2019-04-11T02:05:35.041Z,65.07
2019-04-11T02:08:13.698Z,63.44
2019-04-11T02:10:52.911Z,62.35
2019-04-11T02:13:32.154Z,63.83
2019-04-11T02:16:10.583Z,64.64
2019-04-11T02:18:48.513Z,66.67
2019-04-11T02:21:25.874Z,66.49
2019-04-11T02:24:20.621Z,66.53
2019-04-11T02:27:16.897Z,65.59
2019-04-11T02:29:56.743Z,66.10
2019-04-11T02:32:36.963Z,67.48
2019-04-11T02:35:15.491Z,66.50
2019-04-11T02:37:57.081Z,65.99
2019-04-11T02:40:36.804Z,67.54
2019-04-11T02:43:15.903Z,67.00
2019-04-11T02:46:08.821Z,64.10
2019-04-11T02:48:35.322Z,62.98
2019-04-11T02:51:14.598Z,62.49
2019-04-11T02:53:54.295Z,61.68
2019-04-11T02:56:33.427Z,61.62
2019-04-11T02:59:15.389Z,65.18
2019-04-11T03:01:55.870Z,65.92
2019-04-11T03:04:34.757Z,64.09
2019-04-11T03:07:14.056Z,62.63
2019-04-11T03:09:53.397Z,65.04
2019-04-11T03:12:33.347Z,64.68
2019-04-11T03:15:27.171Z,62.01
2019-04-11T03:17:59.517Z,62.50
2019-04-11T03:20:40.875Z,62.92
2019-04-11T03:23:16.472Z,63.12
2019-04-11T03:25:54.345Z,62.79
2019-04-11T03:28:35.325Z,61.64
2019-04-11T03:31:58.954Z,63.02
2019-04-11T03:37:17.267Z,62.89
2019-04-11T03:39:29.279Z,60.71
2019-04-11T03:42:03.958Z,58.49
2019-04-11T03:44:39.451Z,60.94
2019-04-11T03:47:29.148Z,60.64
2019-04-11T03:49:55.829Z,58.91
2019-04-11T03:52:30.612Z,59.33
2019-04-11T03:55:11.135Z,62.63
2019-04-11T03:57:51.805Z,61.91
2019-04-11T04:00:35.422Z,60.84
2019-04-11T04:03:11.219Z,61.69
2019-04-11T04:05:50.462Z,63.18
2019-04-11T04:08:34.240Z,63.27
2019-04-11T04:11:23.184Z,61.04
2019-04-11T04:14:26.245Z,63.31
2019-04-11T04:17:21.383Z,63.21
2019-04-11T04:20:19.400Z,63.57
2019-04-11T04:23:11.893Z,63.62
2019-04-11T04:25:49.459Z,62.04
2019-04-11T04:28:31.774Z,61.84
2019-04-11T04:31:11.472Z,59.73
2019-04-11T04:33:48.956Z,60.38
2019-04-11T04:36:28.511Z,59.20
2019-04-11T04:39:10.536Z,60.66
2019-04-11T04:41:58.226Z,62.01
2019-04-11T04:44:27.617Z,62.62
2019-04-11T04:47:15.310Z,62.13
2019-04-11T04:49:45.976Z,61.67
2019-04-11T04:52:25.219Z,60.48
2019-04-11T04:55:05.565Z,60.76
2019-04-11T04:57:42.978Z,60.76
2019-04-11T05:00:23.384Z,59.91
2019-04-11T05:03:02.189Z,59.89
2019-04-11T05:05:39.949Z,61.24
2019-04-11T05:08:18.558Z,59.65
2019-04-11T05:10:58.553Z,58.64
2019-04-11T05:13:36.706Z,58.66
2019-04-11T05:16:17.812Z,55.40
2019-04-11T05:18:55.201Z,59.07
2019-04-11T05:21:35.177Z,59.99
2019-04-11T05:24:14.513Z,57.89
2019-04-11T05:26:52.340Z,59.16
2019-04-11T05:29:30.483Z,55.59
2019-04-11T05:32:09.708Z,56.39
2019-04-11T05:34:47.236Z,58.31
2019-04-11T05:37:24.468Z,56.00
2019-04-11T05:40:03.113Z,57.25
2019-04-11T05:42:43.215Z,59.32
2019-04-11T05:45:22.642Z,61.91
2019-04-11T05:48:01.122Z,60.15
2019-04-11T05:50:47.123Z,61.15
2019-04-11T05:53:21.432Z,58.92
2019-04-11T05:56:01.581Z,59.78
2019-04-11T05:58:42.120Z,58.89
2019-04-11T06:01:27.356Z,57.55
2019-04-11T06:04:14.213Z,57.36
2019-04-11T06:07:00.130Z,58.92
2019-04-11T06:09:41.531Z,60.15
2019-04-11T06:12:50.496Z,60.81
2019-04-11T06:15:36.245Z,60.72
2019-04-11T06:18:27.023Z,63.31
2019-04-11T06:21:06.057Z,62.81
2019-04-11T06:24:16.213Z,60.80
2019-04-11T06:27:25.487Z,60.94
2019-04-11T06:30:24.713Z,61.68
2019-04-11T06:33:23.172Z,59.80
2019-04-11T06:36:26.641Z,59.39
2019-04-11T06:39:27.779Z,61.41
2019-04-11T06:42:12.895Z,60.94
2019-04-11T06:45:17.662Z,61.38
2019-04-11T06:48:07.384Z,60.34
2019-04-11T06:50:59.682Z,60.36
2019-04-11T06:53:41.962Z,59.49
2019-04-11T06:56:23.705Z,59.74
2019-04-11T06:59:07.982Z,58.56
2019-04-11T07:01:47.765Z,58.38
2019-04-11T07:04:38.273Z,57.64
2019-04-11T07:07:16.415Z,58.74
2019-04-11T07:09:59.867Z,58.47
2019-04-11T07:12:55.940Z,58.17
2019-04-11T07:15:37.690Z,56.66
2019-04-11T07:18:32.871Z,55.39
2019-04-11T07:21:12.305Z,56.90
2019-04-11T07:24:07.504Z,56.92
2019-04-11T07:27:00.726Z,56.48
2019-04-11T07:30:09.548Z,56.13
2019-04-11T07:32:47.764Z,57.94
2019-04-11T07:35:53.589Z,58.22
2019-04-11T07:38:39.284Z,58.20
2019-04-11T07:41:38.914Z,57.96
2019-04-11T07:44:17.582Z,58.55
2019-04-11T07:47:19.125Z,57.44
2019-04-11T07:49:55.649Z,56.67
2019-04-11T07:52:35.882Z,57.95
2019-04-11T07:55:14.209Z,58.03
2019-04-11T07:57:56.490Z,58.51
2019-04-11T08:01:01.497Z,56.99
2019-04-11T08:04:13.165Z,56.53
2019-04-11T08:07:17.976Z,57.81
2019-04-11T08:10:11.413Z,53.83
2019-04-11T08:12:49.904Z,56.87
2019-04-11T08:15:44.330Z,55.92
2019-04-11T08:18:39.312Z,58.71
2019-04-11T08:21:36.092Z,56.13
2019-04-11T08:24:20.504Z,56.11
2019-04-11T08:27:17.644Z,58.56
2019-04-11T08:29:58.271Z,57.77
2019-04-11T08:32:46.389Z,58.33
2019-04-11T08:35:51.975Z,55.87
2019-04-11T08:38:29.919Z,57.21
2019-04-11T08:41:26.025Z,58.93
2019-04-11T08:44:32.658Z,57.25
2019-04-11T08:47:16.275Z,56.78
2019-04-11T08:49:57.029Z,57.28
2019-04-11T08:52:44.509Z,52.96
2019-04-11T08:55:48.588Z,52.96
2019-04-11T08:58:33.095Z,55.05
2019-04-11T09:01:11.628Z,57.20
2019-04-11T09:04:18.544Z,58.19
2019-04-11T09:06:56.781Z,57.54
2019-04-11T09:09:51.518Z,57.23
2019-04-11T09:12:28.960Z,54.32
2019-04-11T09:15:24.495Z,57.16
2019-04-11T09:18:12.534Z,55.33
2019-04-11T09:21:07.724Z,55.48
2019-04-11T09:23:46.374Z,56.76
2019-04-11T09:26:49.692Z,54.89
2019-04-11T09:29:32.322Z,55.13
2019-04-11T09:32:27.025Z,54.95
2019-04-11T09:35:12.304Z,54.81
2019-04-11T09:37:51.695Z,55.97
2019-04-11T09:40:52.041Z,55.93
2019-04-11T09:43:33.914Z,57.25
2019-04-11T09:46:30.584Z,55.29
2019-04-11T09:49:39.606Z,58.32
2019-04-11T09:52:36.733Z,59.64
2019-04-11T09:55:37.431Z,60.46
2019-04-11T09:58:27.396Z,60.41
2019-04-11T10:01:21.886Z,57.53
2019-04-11T10:04:01.543Z,59.08
2019-04-11T10:06:57.093Z,60.05
2019-04-11T10:10:00.176Z,59.42
2019-04-11T10:13:02.669Z,59.14
2019-04-11T10:15:51.588Z,58.49
2019-04-11T10:18:47.944Z,56.81
2019-04-11T10:21:25.936Z,57.44
2019-04-11T10:24:20.890Z,58.25
2019-04-11T10:27:08.817Z,59.59
2019-04-11T10:30:04.541Z,59.91
2019-04-11T10:32:47.611Z,61.53
2019-04-11T10:35:46.209Z,62.36
2019-04-11T10:38:24.582Z,61.15
2019-04-11T10:41:20.870Z,60.10
2019-04-11T10:43:59.391Z,59.47
2019-04-11T10:46:51.541Z,60.62
2019-04-11T10:49:54.657Z,59.71
2019-04-11T10:52:36.210Z,60.01
2019-04-11T10:55:17.703Z,61.75
2019-04-11T10:58:26.992Z,62.44
2019-04-11T11:01:33.794Z,61.38
2019-04-11T11:04:17.888Z,61.71
2019-04-11T11:06:58.709Z,60.92
2019-04-11T11:09:58.682Z,59.63
2019-04-11T11:12:55.827Z,54.47
2019-04-11T11:15:41.909Z,63.16
2019-04-11T11:19:15.782Z,62.31
2019-04-11T11:21:33.290Z,62.30
2019-04-11T11:24:31.784Z,61.91
2019-04-11T11:27:09.599Z,61.59
2019-04-11T11:30:18.828Z,61.69
2019-04-11T11:32:56.593Z,63.66
2019-04-11T11:36:04.594Z,63.85
2019-04-11T11:38:43.997Z,63.85
2019-04-11T11:41:42.746Z,64.18
2019-04-11T11:44:20.619Z,65.34
2019-04-11T11:47:17.432Z,65.35
2019-04-11T11:50:00.512Z,65.69
2019-04-11T11:53:08.222Z,65.82
2019-04-11T11:55:43.247Z,66.65
2019-04-11T11:58:44.191Z,67.74
2019-04-11T12:01:22.321Z,67.50
2019-04-11T12:04:35.439Z,67.90
2019-04-11T12:07:11.125Z,68.54
2019-04-11T12:10:13.456Z,68.13
2019-04-11T12:13:11.610Z,68.39
2019-04-11T12:16:10.066Z,68.93
2019-04-11T12:19:15.956Z,69.14
2019-04-11T12:21:53.626Z,69.12
2019-04-11T12:24:48.302Z,69.48
2019-04-11T12:27:37.145Z,70.91
2019-04-11T12:30:26.610Z,69.16
2019-04-11T12:33:21.548Z,69.14
2019-04-11T12:36:08.037Z,70.49
2019-04-11T12:38:55.468Z,70.42
2019-04-11T12:41:38.863Z,70.99
2019-04-11T12:44:35.048Z,71.16
2019-04-11T12:47:38.740Z,71.83
2019-04-11T12:50:34.131Z,71.60
2019-04-11T12:53:13.205Z,71.65
2019-04-11T12:56:09.699Z,71.16
2019-04-11T12:59:05.501Z,71.89
2019-04-11T13:02:09.964Z,71.13
2019-04-11T13:04:48.879Z,70.86
2019-04-11T13:07:38.535Z,70.84
2019-04-11T13:10:25.608Z,71.42
2019-04-11T13:13:21.333Z,71.04
2019-04-11T13:16:11.509Z,70.89
2019-04-11T13:19:05.070Z,70.52
2019-04-11T13:21:55.101Z,71.40
2019-04-11T13:24:49.122Z,71.06
2019-04-11T13:27:30.382Z,70.75
2019-04-11T13:30:45.229Z,70.98
2019-04-11T13:33:28.401Z,71.02
2019-04-11T13:36:37.267Z,71.22
2019-04-11T13:39:14.588Z,70.71
2019-04-11T13:42:10.772Z,72.82
2019-04-11T13:44:48.714Z,72.59
2019-04-11T13:47:42.955Z,72.75
2019-04-11T13:50:21.373Z,72.86
2019-04-11T13:53:15.934Z,74.13
2019-04-11T13:55:53.137Z,73.37
2019-04-11T13:59:00.609Z,73.90
2019-04-11T14:01:39.715Z,73.77
2019-04-11T14:04:23.875Z,74.64
2019-04-11T14:07:02.705Z,74.20
2019-04-11T14:09:45.945Z,73.70
2019-04-11T14:12:26.149Z,73.80
2019-04-11T14:15:08.938Z,74.62
2019-04-11T14:17:59.254Z,74.53
2019-04-11T14:20:48.832Z,73.36
2019-04-11T14:23:44.460Z,73.30
2019-04-11T14:26:52.538Z,73.40
2019-04-11T14:29:54.047Z,71.71
2019-04-11T14:32:33.153Z,71.71
2019-04-11T14:35:41.399Z,72.45
2019-04-11T14:38:24.315Z,72.02
2019-04-11T14:41:23.138Z,71.42
2019-04-11T14:44:02.660Z,70.87
2019-04-11T14:47:06.870Z,71.59
2019-04-11T14:49:46.214Z,70.54
2019-04-11T14:52:42.281Z,70.10
2019-04-11T14:55:20.750Z,69.07
2019-04-11T14:58:25.040Z,69.62
2019-04-11T15:01:04.384Z,68.87
2019-04-11T15:04:05.976Z,69.59
2019-04-11T15:06:47.212Z,69.48
2019-04-11T15:09:46.505Z,69.76
2019-04-11T15:12:27.624Z,69.16
2019-04-11T15:15:26.608Z,69.24
2019-04-11T15:18:05.501Z,69.38
2019-04-11T15:20:55.485Z,69.59
2019-04-11T15:23:51.976Z,69.81
2019-04-11T15:26:47.814Z,69.62
2019-04-11T15:29:31.114Z,69.19
2019-04-11T15:32:45.299Z,68.67
2019-04-11T15:35:22.637Z,69.10
2019-04-11T15:38:16.850Z,68.44
2019-04-11T15:40:57.781Z,68.03
2019-04-11T15:43:52.418Z,68.74
2019-04-11T15:46:31.829Z,67.85
2019-04-11T15:49:40.079Z,68.14
2019-04-11T15:52:21.011Z,70.10
2019-04-11T15:55:18.175Z,70.87
2019-04-11T15:57:58.169Z,70.21
2019-04-11T16:00:57.594Z,68.86
2019-04-11T16:03:37.877Z,70.19
2019-04-11T16:06:48.904Z,70.70
2019-04-11T16:09:26.447Z,69.87
2019-04-11T16:12:26.819Z,68.33
2019-04-11T16:15:13.605Z,68.88
2019-04-11T16:18:24.050Z,70.25
2019-04-11T16:21:05.774Z,69.86
2019-04-11T16:23:52.315Z,70.18
2019-04-11T16:26:42.744Z,70.18
2019-04-11T16:29:41.622Z,70.32
2019-04-11T16:32:19.873Z,69.67
2019-04-11T16:35:10.698Z,68.99
2019-04-11T16:37:48.889Z,68.57
2019-04-11T16:40:54.121Z,69.22
2019-04-11T16:43:32.313Z,68.76
2019-04-11T16:46:30.958Z,68.74
2019-04-11T16:49:07.625Z,67.94
2019-04-11T16:51:44.992Z,68.86
2019-04-11T16:54:22.378Z,68.24
2019-04-11T16:56:59.828Z,68.02
2019-04-11T16:59:36.798Z,69.34
2019-04-11T17:02:13.847Z,70.10
2019-04-11T17:04:51.343Z,70.23
2019-04-11T17:07:37.353Z,69.88
2019-04-11T17:10:16.492Z,69.98
2019-04-11T17:12:56.026Z,69.64
2019-04-11T17:15:36.476Z,69.89
2019-04-11T17:18:14.187Z,70.64
2019-04-11T17:20:51.836Z,70.28
2019-04-11T17:23:30.338Z,70.13
2019-04-11T17:26:08.034Z,70.16
2019-04-11T17:28:45.341Z,70.65
2019-04-11T17:31:25.717Z,70.67
2019-04-11T17:34:02.518Z,70.03
2019-04-11T17:36:41.963Z,70.48
2019-04-11T17:39:23.315Z,70.97
2019-04-11T17:42:00.502Z,71.31
2019-04-11T17:44:37.910Z,70.13
2019-04-11T17:47:16.571Z,69.19
2019-04-11T17:49:53.272Z,70.19
2019-04-11T17:52:30.368Z,71.36
2019-04-11T17:55:08.058Z,70.90
2019-04-11T17:57:45.724Z,69.79
2019-04-11T18:00:30.791Z,70.29
2019-04-11T18:03:11.776Z,71.10
2019-04-11T18:05:47.114Z,71.30
2019-04-11T18:08:25.154Z,71.05
2019-04-11T18:11:02.348Z,71.10
2019-04-11T18:13:39.706Z,71.78
2019-04-11T18:16:17.422Z,71.56
2019-04-11T18:18:55.418Z,71.65
2019-04-11T18:21:34.862Z,71.20
2019-04-11T18:24:11.113Z,71.94
2019-04-11T18:26:51.749Z,71.57
2019-04-11T18:29:28.687Z,71.14
2019-04-11T18:32:06.583Z,71.33
2019-04-11T18:34:44.738Z,71.45
2019-04-11T18:37:22.452Z,71.06
2019-04-11T18:39:59.233Z,70.80
2019-04-11T18:42:36.814Z,70.13
2019-04-11T18:45:13.791Z,69.63
2019-04-11T18:47:50.824Z,70.21
2019-04-11T18:50:28.931Z,69.21
2019-04-11T18:53:06.187Z,69.49
2019-04-11T18:55:43.705Z,69.78
2019-04-11T18:58:21.233Z,70.07
2019-04-11T19:00:59.495Z,69.81
2019-04-11T19:03:41.355Z,68.99
2019-04-11T19:06:27.485Z,69.29
2019-04-11T19:08:57.568Z,69.36
2019-04-11T19:11:35.079Z,68.95
2019-04-11T19:14:15.773Z,68.80
2019-04-11T19:16:51.785Z,68.83
2019-04-11T19:19:28.801Z,69.88
2019-04-11T19:22:08.503Z,69.15
2019-04-11T19:24:45.158Z,68.45
2019-04-11T19:27:22.259Z,68.28
2019-04-11T19:29:59.302Z,69.04
2019-04-11T19:32:37.502Z,68.63
2019-04-11T19:35:14.998Z,67.32
2019-04-11T19:37:52.265Z,66.97
2019-04-11T19:40:30.576Z,67.83
2019-04-11T19:43:09.578Z,69.01
2019-04-11T19:45:49.811Z,69.28
2019-04-11T19:48:25.800Z,68.61
2019-04-11T19:51:03.453Z,68.96
2019-04-11T19:53:41.690Z,69.62
2019-04-11T19:56:33.741Z,69.70
2019-04-11T19:59:11.239Z,69.53
2019-04-11T20:01:50.826Z,70.11
2019-04-11T20:04:27.620Z,70.23
2019-04-11T20:07:04.739Z,70.57
2019-04-11T20:09:42.021Z,71.12
2019-04-11T20:12:19.616Z,71.13
2019-04-11T20:14:57.207Z,71.03
2019-04-11T20:17:44.045Z,71.76
2019-04-11T20:20:14.527Z,70.96
2019-04-11T20:22:58.852Z,71.36
2019-04-11T20:25:32.086Z,71.97
2019-04-11T20:28:09.367Z,71.04
2019-04-11T20:30:46.870Z,69.72
2019-04-11T20:33:27.316Z,68.88
2019-04-11T20:36:03.334Z,69.03
2019-04-11T20:38:40.221Z,68.01
2019-04-11T20:41:17.199Z,67.27
2019-04-11T20:43:56.881Z,68.80
2019-04-11T20:46:53.280Z,69.73
2019-04-11T20:49:30.406Z,70.00
2019-04-11T20:52:07.111Z,69.45
2019-04-11T20:54:45.382Z,68.98
2019-04-11T20:57:26.274Z,70.49
2019-04-11T21:00:03.746Z,69.59
2019-04-11T21:02:41.343Z,70.47
2019-04-11T21:05:18.821Z,71.25
2019-04-11T21:08:02.555Z,72.29
2019-04-11T21:10:36.905Z,72.51
2019-04-11T21:13:13.999Z,71.00
2019-04-11T21:15:50.823Z,69.97
2019-04-11T21:18:28.808Z,69.34
2019-04-11T21:21:06.162Z,69.91
2019-04-11T21:23:43.903Z,70.22
2019-04-11T21:26:20.802Z,71.63
2019-04-11T21:28:59.638Z,70.86
2019-04-11T21:31:37.187Z,71.93
2019-04-11T21:34:14.843Z,72.05
2019-04-11T21:36:52.469Z,72.31
2019-04-11T21:39:29.785Z,72.97
2019-04-11T21:42:06.990Z,72.23
2019-04-11T21:44:44.009Z,73.11
2019-04-11T21:47:21.175Z,72.23
2019-04-11T21:49:58.170Z,72.35
2019-04-11T21:52:35.279Z,72.37
2019-04-11T21:55:15.198Z,72.36
2019-04-11T21:57:51.920Z,73.27
2019-04-11T22:00:40.839Z,72.77
2019-04-11T22:03:23.990Z,72.32
2019-04-11T22:06:00.092Z,72.45
2019-04-11T22:08:37.819Z,73.39
2019-04-11T22:11:15.271Z,73.13
2019-04-11T22:13:52.188Z,72.41
2019-04-11T22:16:28.983Z,72.24
2019-04-11T22:19:07.410Z,72.04
2019-04-11T22:21:45.999Z,72.69
2019-04-11T22:24:23.914Z,71.89
2019-04-11T22:27:01.315Z,71.87
2019-04-11T22:29:39.461Z,70.83
2019-04-11T22:32:19.826Z,70.92
2019-04-11T22:34:59.212Z,71.35
2019-04-11T22:37:36.428Z,71.25
2019-04-11T22:40:13.830Z,70.97
2019-04-11T22:42:51.057Z,71.23
2019-04-11T22:45:28.533Z,73.02
2019-04-11T22:48:08.501Z,72.50
2019-04-11T22:50:44.976Z,72.22
2019-04-11T22:53:22.342Z,72.11
2019-04-11T22:55:59.256Z,71.17
2019-04-11T22:58:36.388Z,71.51
2019-04-11T23:01:13.980Z,73.32
2019-04-11T23:03:58.983Z,73.46
2019-04-11T23:06:34.728Z,73.42
2019-04-11T23:09:12.592Z,73.99
2019-04-11T23:11:49.489Z,74.22
2019-04-11T23:14:27.000Z,73.74
2019-04-11T23:17:04.286Z,74.54
2019-04-11T23:19:43.920Z,73.05
2019-04-11T23:22:20.803Z,74.60
2019-04-11T23:24:58.622Z,74.15
2019-04-11T23:27:36.077Z,72.57
2019-04-11T23:30:15.906Z,72.92
2019-04-11T23:32:53.090Z,72.76
2019-04-11T23:35:31.571Z,72.84
2019-04-11T23:38:09.098Z,72.66
2019-04-11T23:40:46.508Z,72.70
2019-04-11T23:43:22.886Z,72.53
2019-04-11T23:46:00.570Z,71.64
2019-04-11T23:48:38.002Z,71.71
2019-04-11T23:51:16.016Z,72.85
2019-04-11T23:53:53.244Z,72.66
2019-04-11T23:56:31.346Z,73.03
2019-04-11T23:59:08.373Z,72.81
